Time;durP1;ratioP1;P1;durP2;ratioP2;P2;SDS_P1;SDS_P2;PMS_P1;PMS_P2;Temp;Humidity;BMP_temperature;BMP_pressure;BME280_temperature;BME280_humidity;BME280_pressure;Samples;Min_cycle;Max_cycle;Signal;HPM_P1;HPM_P2
2022/10/31 00:01:30;;;;;;;;;12.67;10.67;;;;;17.31;66.18;101636.84;5059755;28;45370;-42
2022/10/31 00:03:55;;;;;;;;;11.67;10.33;;;;;17.27;66.36;101642.75;5060049;28;45484;-42
2022/10/31 00:06:21;;;;;;;;;12.67;11.00;;;;;17.23;66.38;101636.00;5060230;28;45288;-43
2022/10/31 00:08:52;;;;;;;;;13.67;9.00;;;;;17.24;66.62;101648.47;5059863;28;45427;-43
2022/10/31 00:11:17;;;;;;;;;13.67;11.00;;;;;17.26;66.98;101646.44;5059549;28;45467;-43
2022/10/31 00:13:43;;;;;;;;;13.33;10.00;;;;;17.22;66.83;101645.94;5059912;28;45280;-44
2022/10/31 00:16:22;;;;;;;;;14.67;14.00;;;;;17.28;66.73;101649.81;5059761;28;45191;-44
2022/10/31 00:18:51;;;;;;;;;15.00;13.00;;;;;17.27;66.51;101654.34;5059714;28;45410;-43
2022/10/31 00:21:17;;;;;;;;;17.33;15.00;;;;;17.21;66.58;101641.56;5059529;28;45437;-44
2022/10/31 00:23:43;;;;;;;;;16.33;15.00;;;;;17.21;66.86;101645.09;5059610;28;45500;-44
2022/10/31 00:26:08;;;;;;;;;12.67;12.00;;;;;17.18;67.19;101634.66;5059760;28;45502;-43
2022/10/31 00:28:34;;;;;;;;;12.00;12.00;;;;;17.16;67.15;101634.00;5059456;28;46241;-43
2022/10/31 00:31:06;;;;;;;;;18.67;12.00;;;;;17.11;67.25;101643.59;5059684;28;45232;-44
2022/10/31 00:33:34;;;;;;;;;15.33;14.67;;;;;17.10;67.43;101647.28;5059577;28;45354;-44
2022/10/31 00:35:59;;;;;;;;;16.33;13.00;;;;;17.05;67.56;101644.25;5059634;28;45429;-43
2022/10/31 00:38:25;;;;;;;;;13.33;13.33;;;;;17.05;67.63;101647.78;5058063;28;47208;-48
2022/10/31 00:40:50;;;;;;;;;15.67;12.00;;;;;16.99;67.72;101648.47;5059417;28;45389;-42
2022/10/31 00:43:15;;;;;;;;;18.33;15.67;;;;;16.87;67.96;101639.03;5059674;28;45403;-42
2022/10/31 00:45:42;;;;;;;;;16.67;12.67;;;;;16.89;67.83;101650.44;5059432;28;45465;-44
2022/10/31 00:48:08;;;;;;;;;22.33;18.00;;;;;16.82;68.20;101636.84;5059234;28;46099;-47
2022/10/31 00:50:34;;;;;;;;;19.00;18.33;;;;;16.82;68.18;101644.06;5059010;28;45299;-44
2022/10/31 00:52:59;;;;;;;;;13.67;12.67;;;;;16.83;68.25;101637.69;5059106;28;45331;-43
2022/10/31 00:55:25;;;;;;;;;22.00;15.00;;;;;16.77;68.46;101638.34;5059437;28;45306;-43
2022/10/31 00:57:50;;;;;;;;;16.33;13.67;;;;;16.73;68.42;101632.47;5058740;28;46277;-43
2022/10/31 01:00:16;;;;;;;;;18.67;14.33;;;;;16.74;68.72;101633.31;5058839;28;45360;-44
2022/10/31 01:02:41;;;;;;;;;19.00;17.00;;;;;16.76;69.46;101644.72;5059152;28;45398;-43
2022/10/31 01:05:07;;;;;;;;;21.33;18.00;;;;;16.66;69.53;101624.19;5059136;28;45328;-43
2022/10/31 01:07:36;;;;;;;;;20.00;18.00;;;;;16.79;69.09;101628.28;5058590;28;47226;-42
2022/10/31 01:10:01;;;;;;;;;18.67;17.00;;;;;16.82;69.07;101630.63;5058585;28;45208;-43
2022/10/31 01:12:27;;;;;;;;;22.00;21.00;;;;;16.82;69.11;101622.56;5058987;28;45356;-42
2022/10/31 01:14:52;;;;;;;;;21.00;18.00;;;;;16.83;69.04;101619.72;5059064;28;45444;-42
2022/10/31 01:17:17;;;;;;;;;20.00;18.33;;;;;16.84;69.22;101610.63;5058389;28;46001;-43
2022/10/31 01:19:43;;;;;;;;;23.00;16.33;;;;;16.85;69.12;101604.25;5058707;28;45421;-42
2022/10/31 01:22:08;;;;;;;;;24.67;21.00;;;;;16.87;69.45;101604.09;5059609;28;45268;-44
2022/10/31 01:24:34;;;;;;;;;16.67;15.33;;;;;16.86;69.23;101597.06;5059624;28;45506;-43
2022/10/31 01:26:59;;;;;;;;;23.33;14.67;;;;;16.91;69.26;101613.50;5059690;28;45376;-42
2022/10/31 01:29:24;;;;;;;;;18.00;16.00;;;;;16.90;69.47;101599.25;5059834;28;45240;-42
2022/10/31 01:31:50;;;;;;;;;24.00;17.00;;;;;16.89;69.52;101597.53;5059235;28;45487;-44
2022/10/31 01:34:17;;;;;;;;;18.67;16.33;;;;;16.89;69.16;101605.59;5058877;28;45417;-42
2022/10/31 01:36:44;;;;;;;;;19.67;16.67;;;;;16.85;69.35;101593.50;5058383;28;45418;-42
2022/10/31 01:39:12;;;;;;;;;23.67;18.00;;;;;16.83;69.18;101597.38;5058340;28;45344;-43
2022/10/31 01:41:41;;;;;;;;;22.33;21.00;;;;;16.83;69.46;101592.84;5058301;28;45482;-43
2022/10/31 01:44:13;;;;;;;;;18.67;16.33;;;;;16.84;69.37;101593.69;5058306;28;45403;-42
2022/10/31 01:46:43;;;;;;;;;22.33;17.33;;;;;16.85;69.71;101596.19;5058030;28;47191;-43
2022/10/31 01:49:15;;;;;;;;;23.00;20.67;;;;;16.87;69.90;101571.84;5057891;28;45461;-42
2022/10/31 01:51:47;;;;;;;;;22.67;21.67;;;;;16.88;69.76;101571.69;5057125;28;45371;-42
2022/10/31 01:54:18;;;;;;;;;22.67;20.33;;;;;16.91;69.57;101573.19;5058235;28;45681;-43
2022/10/31 01:56:48;;;;;;;;;19.33;18.00;;;;;16.89;69.53;101569.81;5057799;28;47461;-43
2022/10/31 01:59:19;;;;;;;;;24.33;19.33;;;;;16.88;69.45;101578.91;5057965;28;45426;-43
2022/10/31 02:01:44;;;;;;;;;24.00;20.33;;;;;16.85;69.33;101579.22;5057760;28;45318;-44
2022/10/31 02:04:10;;;;;;;;;20.67;16.67;;;;;16.83;69.66;101575.88;5058083;28;45438;-42
2022/10/31 02:06:51;;;;;;;;;23.67;18.33;;;;;16.81;69.48;101584.13;5058124;28;45275;-42
2022/10/31 02:09:23;;;;;;;;;26.00;19.33;;;;;16.76;69.79;101572.19;5057852;28;45276;-42
2022/10/31 02:11:51;;;;;;;;;22.00;18.33;;;;;16.79;70.03;101570.00;5057947;28;45504;-42
2022/10/31 02:14:18;;;;;;;;;20.00;15.33;;;;;16.73;69.72;101564.44;5058183;28;45359;-42
2022/10/31 02:16:43;;;;;;;;;15.33;13.00;;;;;16.82;69.57;101574.22;5057631;28;45986;-43
2022/10/31 02:19:14;;;;;;;;;23.00;17.67;;;;;16.81;69.90;101564.44;5057831;28;45471;-42
2022/10/31 02:21:53;;;;;;;;;23.00;20.00;;;;;16.76;69.83;101550.69;5057596;28;45379;-44
2022/10/31 02:24:24;;;;;;;;;23.33;20.33;;;;;16.80;69.62;101555.53;5057679;28;45508;-45
2022/10/31 02:26:52;;;;;;;;;21.67;20.33;;;;;16.83;69.96;101544.47;5057379;28;46232;-43
2022/10/31 02:29:23;;;;;;;;;19.33;17.00;;;;;16.88;69.68;101552.88;5057512;28;45340;-51
2022/10/31 02:32:14;;;;;;;;;21.67;19.33;;;;;16.92;69.54;101550.69;5057755;28;45342;-42
2022/10/31 02:35:00;;;;;;;;;24.33;19.33;;;;;16.93;69.45;101553.19;5057850;28;45169;-43
2022/10/31 02:37:55;;;;;;;;;18.67;18.00;;;;;16.89;69.67;101559.91;5057409;28;46173;-43
2022/10/31 02:40:26;;;;;;;;;19.67;16.67;;;;;16.86;70.03;101548.69;5052422;28;45642;-44
2022/10/31 02:42:54;;;;;;;;;24.33;17.33;;;;;16.85;70.08;101541.59;5057586;28;45334;-43
2022/10/31 02:45:48;;;;;;;;;24.67;18.67;;;;;16.90;69.53;101533.91;5057527;28;45378;-43
2022/10/31 02:48:26;;;;;;;;;21.00;18.33;;;;;16.89;69.47;101532.19;5057054;28;47198;-42
2022/10/31 02:51:01;;;;;;;;;18.00;14.33;;;;;16.88;69.88;101530.53;5056952;28;45459;-43
2022/10/31 02:53:31;;;;;;;;;19.33;15.00;;;;;16.90;69.53;101526.69;5057442;28;45348;-45
2022/10/31 02:56:01;;;;;;;;;25.00;18.00;;;;;16.79;69.81;101515.41;5057283;28;45505;-43
2022/10/31 02:58:31;;;;;;;;;15.67;15.33;;;;;16.80;69.76;101527.84;5057019;28;45229;-43
2022/10/31 03:01:14;;;;;;;;;23.67;18.00;;;;;16.76;69.71;101526.50;5056952;28;45344;-42
2022/10/31 03:04:15;;;;;;;;;14.00;12.00;;;;;16.67;69.92;101539.06;5057126;28;45390;-43
2022/10/31 03:07:07;;;;;;;;;20.67;18.67;;;;;16.66;70.27;101530.16;5057415;28;45347;-42
2022/10/31 03:09:53;;;;;;;;;24.00;19.33;;;;;16.69;69.95;101524.47;5056749;28;47248;-43
2022/10/31 03:12:54;;;;;;;;;27.67;22.00;;;;;16.71;69.71;101525.13;5055780;28;45401;-44
2022/10/31 03:15:30;;;;;;;;;23.67;17.67;;;;;16.70;70.07;101522.59;5034570;28;45416;-44
2022/10/31 03:18:13;;;;;;;;;25.67;16.00;;;;;16.68;70.26;101520.06;5034573;28;45555;-44
2022/10/31 03:20:48;;;;;;;;;20.67;17.67;;;;;16.65;70.20;101522.28;5034249;28;45430;-43
2022/10/31 03:23:18;;;;;;;;;21.00;19.00;;;;;16.63;70.38;101519.75;5034484;28;45618;-42
2022/10/31 03:25:46;;;;;;;;;22.67;18.00;;;;;16.60;70.50;101517.41;5018113;28;45464;-43
2022/10/31 03:28:15;;;;;;;;;19.33;17.33;;;;;16.62;70.44;101510.00;5034893;28;45311;-42
2022/10/31 03:30:44;;;;;;;;;24.33;20.33;;;;;16.62;70.32;101523.44;5034234;28;46167;-44
2022/10/31 03:33:16;;;;;;;;;20.67;18.00;;;;;16.62;70.29;101514.53;5034340;28;45309;-42
2022/10/31 03:35:45;;;;;;;;;24.33;18.33;;;;;16.59;70.31;101517.56;5034114;28;45455;-43
2022/10/31 03:38:12;;;;;;;;;21.33;16.67;;;;;16.55;70.55;101506.31;5017883;28;45536;-44
2022/10/31 03:40:41;;;;;;;;;20.00;18.00;;;;;16.53;70.38;101491.38;5034083;28;46302;-43
2022/10/31 03:43:26;;;;;;;;;26.00;20.00;;;;;16.54;70.54;101496.56;5034110;28;45458;-42
2022/10/31 03:45:52;;;;;;;;;22.67;19.00;;;;;16.52;70.61;101492.38;5034093;28;45376;-43
2022/10/31 03:48:20;;;;;;;;;16.33;12.00;;;;;16.51;70.64;101491.53;5036178;28;45375;-42
2022/10/31 03:51:18;;;;;;;;;20.00;20.00;;;;;16.52;70.42;101497.75;5056417;28;46212;-43
2022/10/31 03:53:56;;;;;;;;;28.67;22.67;;;;;16.44;70.57;101488.69;5034005;28;45352;-44
2022/10/31 03:56:27;;;;;;;;;21.67;19.33;;;;;16.43;70.97;101503.13;5034052;28;45461;-45
2022/10/31 03:59:00;;;;;;;;;22.67;18.67;;;;;16.40;70.89;101492.72;5034188;28;45495;-43
2022/10/31 04:01:29;;;;;;;;;25.33;21.33;;;;;16.35;71.35;101467.34;5033965;28;46160;-44
2022/10/31 04:03:56;;;;;;;;;26.00;19.67;;;;;16.43;71.16;101480.78;5034048;28;45452;-44
2022/10/31 04:06:24;;;;;;;;;24.00;23.00;;;;;16.43;71.27;101478.09;5034001;28;45427;-43
2022/10/31 04:08:58;;;;;;;;;21.00;19.33;;;;;16.42;70.88;101476.44;5034272;28;45449;-42
2022/10/31 04:11:29;;;;;;;;;19.33;18.67;;;;;16.43;71.19;101475.41;5033640;28;46251;-42
2022/10/31 04:13:57;;;;;;;;;24.67;19.00;;;;;16.46;71.07;101475.09;5033685;28;45444;-42
2022/10/31 04:16:24;;;;;;;;;21.33;20.00;;;;;16.47;71.10;101474.06;5033777;28;45377;-41
2022/10/31 04:18:50;;;;;;;;;23.00;17.67;;;;;16.46;71.28;101472.41;5034238;28;45651;-45
2022/10/31 04:21:16;;;;;;;;;20.50;20.00;;;;;16.44;70.92;101467.22;5033924;28;45522;-43
2022/10/31 04:23:42;;;;;;;;;20.67;20.33;;;;;16.44;71.39;101472.59;5034249;28;45446;-44
2022/10/31 04:26:10;;;;;;;;;27.67;18.67;;;;;16.41;71.07;101469.38;5037292;28;45368;-43
2022/10/31 04:28:35;;;;;;;;;19.67;17.67;;;;;16.42;71.26;101469.22;5037548;28;45526;-43
2022/10/31 04:31:00;;;;;;;;;24.33;20.33;;;;;16.43;71.28;101461.97;5049793;28;45931;-43
2022/10/31 04:33:26;;;;;;;;;18.33;17.00;;;;;16.44;71.23;101463.69;5059356;28;45327;-43
2022/10/31 04:35:51;;;;;;;;;21.33;19.00;;;;;16.45;71.11;101468.03;5059698;28;45333;-43
2022/10/31 04:38:16;;;;;;;;;21.33;20.00;;;;;16.42;71.19;101471.06;5059719;28;45289;-42
2022/10/31 04:40:42;;;;;;;;;23.00;21.00;;;;;16.39;71.49;101461.50;5059221;28;46476;-42
2022/10/31 04:43:07;;;;;;;;;23.33;17.67;;;;;16.36;71.03;101456.47;5059289;28;45423;-42
2022/10/31 04:45:32;;;;;;;;;24.00;18.67;;;;;16.41;71.14;101462.16;5059346;28;45449;-42
2022/10/31 04:47:58;;;;;;;;;18.00;16.00;;;;;16.42;71.28;101463.00;5059505;28;45399;-42
2022/10/31 04:50:23;;;;;;;;;16.33;16.00;;;;;16.39;71.03;101449.91;5059062;28;46181;-43
2022/10/31 04:52:48;;;;;;;;;29.33;20.33;;;;;16.38;71.38;101453.59;5059516;28;45351;-43
2022/10/31 04:55:14;;;;;;;;;22.33;19.00;;;;;16.38;71.31;101449.06;5059053;28;45368;-42
2022/10/31 04:57:48;;;;;;;;;20.00;20.00;;;;;16.28;71.06;101416.19;5059390;28;45316;-42
2022/10/31 05:00:16;;;;;;;;;20.33;18.00;;;;;16.38;71.28;101422.22;5058921;28;46167;-43
2022/10/31 05:02:50;;;;;;;;;20.67;18.67;;;;;16.36;71.06;101423.41;5058953;28;45486;-42
2022/10/31 05:05:17;;;;;;;;;18.33;15.33;;;;;16.36;70.91;101431.47;5058950;28;45255;-42
2022/10/31 05:07:44;;;;;;;;;17.33;16.33;;;;;16.33;70.99;101423.72;5059502;28;45487;-45
2022/10/31 05:10:19;;;;;;;;;17.33;13.33;;;;;16.29;70.96;101428.59;5058814;28;45307;-43
2022/10/31 05:12:48;;;;;;;;;19.00;15.00;;;;;16.29;71.05;101419.69;5058907;28;45875;-44
2022/10/31 05:15:14;;;;;;;;;14.00;10.33;;;;;16.29;71.21;101419.69;5058963;28;45294;-44
2022/10/31 05:17:39;;;;;;;;;20.00;17.00;;;;;16.28;71.21;101413.50;5058931;28;45524;-44
2022/10/31 05:20:05;;;;;;;;;18.33;15.33;;;;;16.30;71.34;101405.25;5058855;28;45342;-42
2022/10/31 05:22:30;;;;;;;;;17.33;15.67;;;;;16.32;71.30;101404.09;5058802;28;45227;-44
2022/10/31 05:24:56;;;;;;;;;20.00;16.67;;;;;16.34;71.20;101403.91;5058946;28;45509;-43
2022/10/31 05:27:21;;;;;;;;;18.00;14.33;;;;;16.34;71.21;101391.34;5059228;28;45361;-42
2022/10/31 05:29:46;;;;;;;;;20.00;15.00;;;;;16.32;71.25;101381.78;5058440;28;46663;-43
2022/10/31 05:32:12;;;;;;;;;15.00;12.00;;;;;16.37;71.25;101390.16;5058427;28;45210;-43
2022/10/31 05:34:37;;;;;;;;;17.67;13.00;;;;;16.37;70.92;101390.16;5058881;28;45295;-43
2022/10/31 05:37:02;;;;;;;;;19.67;12.67;;;;;16.36;71.26;101388.50;5057812;28;45345;-44
2022/10/31 05:39:28;;;;;;;;;16.33;13.67;;;;;16.31;71.22;101382.81;5058516;28;46072;-44
2022/10/31 05:41:53;;;;;;;;;14.33;12.00;;;;;16.33;71.21;101388.81;5058264;28;45162;-43
2022/10/31 05:44:19;;;;;;;;;17.00;14.33;;;;;16.34;71.21;101393.19;5058215;28;45456;-42
2022/10/31 05:46:46;;;;;;;;;13.00;12.33;;;;;16.28;71.41;101391.19;5058588;28;45403;-43
2022/10/31 05:49:11;;;;;;;;;17.33;11.33;;;;;16.26;71.28;101385.13;5058185;28;47205;-43
2022/10/31 05:51:36;;;;;;;;;15.67;13.33;;;;;16.27;71.30;101384.16;5058428;28;45488;-42
2022/10/31 05:54:02;;;;;;;;;16.33;13.67;;;;;16.24;71.59;101387.16;5058337;28;45480;-41
2022/10/31 05:56:27;;;;;;;;;18.00;12.33;;;;;16.20;71.81;101381.28;5058163;28;45429;-42
2022/10/31 05:58:52;;;;;;;;;19.00;14.00;;;;;16.19;71.75;101376.94;5058187;28;46238;-41
2022/10/31 06:01:18;;;;;;;;;14.33;13.33;;;;;16.16;72.06;101380.78;5057946;28;45413;-43
2022/10/31 06:03:43;;;;;;;;;16.67;15.67;;;;;16.14;71.91;101381.97;5058263;28;45350;-42
2022/10/31 06:06:08;;;;;;;;;17.67;13.33;;;;;16.12;72.11;101379.44;5058320;28;45354;-42
2022/10/31 06:08:34;;;;;;;;;19.67;16.67;;;;;16.11;72.01;101369.72;5057902;28;45265;-43
2022/10/31 06:10:59;;;;;;;;;17.33;15.00;;;;;16.13;71.98;101370.38;5057886;28;45355;-43
2022/10/31 06:13:24;;;;;;;;;19.33;16.33;;;;;16.10;72.43;101369.88;5057968;28;45383;-42
2022/10/31 06:15:50;;;;;;;;;13.00;12.67;;;;;16.08;72.06;101367.34;5058390;28;45351;-42
2022/10/31 06:18:15;;;;;;;;;17.00;16.67;;;;;16.07;71.99;101360.31;5056463;28;47222;-45
2022/10/31 06:20:40;;;;;;;;;18.33;16.67;;;;;16.07;72.30;101360.31;5057928;28;45288;-43
2022/10/31 06:23:06;;;;;;;;;17.67;12.33;;;;;16.08;72.23;101358.47;5057972;28;45200;-42
2022/10/31 06:25:32;;;;;;;;;20.67;16.33;;;;;16.09;72.22;101355.59;5057832;28;45406;-42
2022/10/31 06:27:58;;;;;;;;;16.67;15.00;;;;;16.01;72.23;101336.81;5057778;28;46066;-45
2022/10/31 06:30:23;;;;;;;;;15.67;13.00;;;;;16.13;72.01;101345.38;5057605;28;45193;-43
2022/10/31 06:32:49;;;;;;;;;18.33;16.00;;;;;16.12;72.13;101349.91;5057960;28;45609;-43
2022/10/31 06:35:15;;;;;;;;;18.33;16.67;;;;;16.13;72.01;101354.25;5057755;28;45491;-43
2022/10/31 06:37:40;;;;;;;;;16.67;13.33;;;;;16.07;72.14;101348.75;5057358;28;46038;-44
2022/10/31 06:40:06;;;;;;;;;11.67;11.67;;;;;16.12;72.20;101355.28;5057535;28;45504;-42
2022/10/31 06:42:31;;;;;;;;;14.67;14.67;;;;;16.12;72.10;101355.28;5057663;28;45287;-44
2022/10/31 06:44:57;;;;;;;;;16.33;13.67;;;;;16.15;72.12;101349.56;5057562;28;45373;-44
2022/10/31 06:47:22;;;;;;;;;19.33;17.00;;;;;16.15;72.04;101348.75;5057174;28;46180;-43
2022/10/31 06:49:47;;;;;;;;;19.33;15.33;;;;;16.13;72.05;101348.88;5057346;28;45370;-43
2022/10/31 06:52:13;;;;;;;;;20.00;15.33;;;;;16.15;72.06;101338.00;5057479;28;45327;-42
2022/10/31 06:54:38;;;;;;;;;16.33;15.67;;;;;16.16;71.71;101337.81;5057580;28;45420;-43
2022/10/31 06:57:03;;;;;;;;;15.33;12.00;;;;;16.14;72.09;101345.22;5057016;28;46240;-43
2022/10/31 06:59:29;;;;;;;;;16.33;14.67;;;;;16.12;72.00;101341.03;5057285;28;45441;-50
2022/10/31 07:01:54;;;;;;;;;21.00;15.33;;;;;16.18;72.21;101337.66;5057219;28;45356;-43
2022/10/31 07:04:19;;;;;;;;;21.33;13.67;;;;;16.21;71.79;101345.38;5057461;28;45222;-44
2022/10/31 07:06:45;;;;;;;;;20.00;14.67;;;;;16.21;71.68;101342.69;5057121;28;45284;-44
2022/10/31 07:09:10;;;;;;;;;16.00;13.00;;;;;16.19;71.62;101340.19;5057025;28;45726;-42
2022/10/31 07:11:35;;;;;;;;;18.33;13.00;;;;;16.22;71.68;101330.94;5056946;28;45245;-42
2022/10/31 07:14:01;;;;;;;;;15.33;12.67;;;;;16.22;71.78;101330.94;5057252;28;45464;-43
2022/10/31 07:16:26;;;;;;;;;16.67;12.33;;;;;16.22;71.89;101339.00;5056900;28;46200;-42
2022/10/31 07:18:51;;;;;;;;;20.00;13.33;;;;;16.24;71.77;101337.00;5057067;28;45366;-43
2022/10/31 07:21:17;;;;;;;;;17.67;14.33;;;;;16.28;71.50;101334.81;5056920;28;45267;-42
2022/10/31 07:23:42;;;;;;;;;17.67;15.00;;;;;16.32;71.50;101333.47;5057288;28;45226;-43
2022/10/31 07:26:09;;;;;;;;;22.00;15.00;;;;;16.31;71.72;101321.88;5056785;28;45533;-42
2022/10/31 07:28:35;;;;;;;;;15.00;12.00;;;;;16.32;71.57;101322.72;5056837;28;45297;-41
2022/10/31 07:31:00;;;;;;;;;14.33;11.33;;;;;16.34;71.62;101334.94;5056935;28;45378;-42
2022/10/31 07:33:26;;;;;;;;;12.33;12.33;;;;;16.33;71.81;101335.13;5057054;28;45448;-43
2022/10/31 07:35:51;;;;;;;;;16.33;13.67;;;;;16.31;71.70;101323.75;5056903;28;46192;-44
2022/10/31 07:38:17;;;;;;;;;17.33;14.00;;;;;16.35;71.79;101335.78;5056745;28;45414;-45
2022/10/31 07:40:43;;;;;;;;;18.33;14.33;;;;;16.31;71.60;101327.25;5056786;28;45784;-44
2022/10/31 07:43:11;;;;;;;;;15.00;12.00;;;;;16.35;71.72;101333.09;5057143;28;45442;-44
2022/10/31 07:45:36;;;;;;;;;15.67;13.67;;;;;16.34;72.09;101326.06;5056337;28;45960;-43
2022/10/31 07:48:02;;;;;;;;;16.67;14.33;;;;;16.35;72.15;101325.03;5056769;27;45362;-42
2022/10/31 07:50:33;;;;;;;;;20.33;16.67;;;;;16.35;71.68;101314.31;5056819;28;45441;-43
2022/10/31 07:52:59;;;;;;;;;17.00;12.67;;;;;16.36;72.00;101322.22;5056783;28;45470;-42
2022/10/31 07:55:25;;;;;;;;;14.00;13.33;;;;;16.37;72.21;101318.50;5056189;28;46312;-41
2022/10/31 07:58:09;;;;;;;;;16.67;15.67;;;;;16.38;72.14;101322.88;5054826;28;45501;-42
2022/10/31 08:00:36;;;;;;;;;19.00;14.67;;;;;16.38;72.22;101320.19;5059866;28;45186;-43
2022/10/31 08:03:04;;;;;;;;;15.67;15.67;;;;;16.40;72.10;101310.13;5060611;28;45407;-43
2022/10/31 08:05:31;;;;;;;;;20.67;15.67;;;;;16.45;72.07;101314.97;5060098;28;46249;-42
2022/10/31 08:07:57;;;;;;;;;16.67;14.33;;;;;16.47;71.63;101315.63;5059965;28;45311;-44
2022/10/31 08:10:24;;;;;;;;;25.00;20.33;;;;;16.49;71.68;101310.09;5060064;28;45363;-43
2022/10/31 08:13:15;;;;;;;;;14.67;12.33;;;;;16.52;71.81;101310.59;5059898;28;45489;-42
2022/10/31 08:15:41;;;;;;;;;16.33;15.33;;;;;16.55;71.65;101310.22;5058622;28;47477;-42
2022/10/31 08:18:14;;;;;;;;;18.67;17.67;;;;;16.50;71.58;101303.72;5059651;28;45362;-43
2022/10/31 08:20:41;;;;;;;;;20.67;17.33;;;;;16.53;71.87;101314.13;5059846;28;45356;-44
2022/10/31 08:23:08;;;;;;;;;22.33;18.00;;;;;16.53;71.90;101312.28;5059882;28;45358;-43
2022/10/31 08:25:34;;;;;;;;;25.67;18.33;;;;;16.58;71.74;101309.06;5059562;28;45383;-44
2022/10/31 08:28:00;;;;;;;;;21.33;18.33;;;;;16.63;71.42;101299.47;5059584;28;45236;-45
2022/10/31 08:30:31;;;;;;;;;19.00;18.33;;;;;16.63;71.78;101299.47;5059738;28;45354;-43
2022/10/31 08:33:13;;;;;;;;;24.33;18.33;;;;;16.67;71.49;101298.13;5060055;28;45481;-43
2022/10/31 08:35:39;;;;;;;;;20.67;16.67;;;;;16.63;71.45;101279.84;5058022;28;46159;-43
2022/10/31 08:38:05;;;;;;;;;21.00;18.33;;;;;16.70;71.48;101278.97;5059252;28;45439;-43
2022/10/31 08:40:32;;;;;;;;;22.00;22.00;;;;;16.73;71.53;101276.97;5059747;28;45274;-42
2022/10/31 08:43:00;;;;;;;;;19.67;15.67;;;;;16.71;71.46;101272.59;5059595;28;45388;-43
2022/10/31 08:45:26;;;;;;;;;25.67;18.00;;;;;16.73;71.51;101268.91;5059054;28;46131;-43
2022/10/31 08:47:51;;;;;;;;;24.00;20.67;;;;;16.73;71.51;101268.91;5058903;28;45397;-43
2022/10/31 08:50:17;;;;;;;;;23.00;15.67;;;;;16.69;71.28;101265.72;5059506;28;46059;-44
2022/10/31 08:52:42;;;;;;;;;18.33;13.00;;;;;16.77;71.76;101254.97;5059712;28;45329;-43
2022/10/31 08:55:08;;;;;;;;;25.00;20.00;;;;;16.77;71.68;101248.75;5059065;28;46246;-43
2022/10/31 08:57:33;;;;;;;;;26.00;19.33;;;;;16.77;71.23;101249.59;5059351;28;45323;-41
2022/10/31 08:59:59;;;;;;;;;23.00;23.00;;;;;16.84;71.64;101249.72;5058518;28;45344;-44
2022/10/31 09:02:24;;;;;;;;;22.67;22.67;;;;;16.86;71.05;101240.50;5059628;28;45364;-43
2022/10/31 09:04:49;;;;;;;;;21.00;18.33;;;;;16.86;71.27;101247.72;5059154;28;46130;-43
2022/10/31 09:07:15;;;;;;;;;25.33;21.67;;;;;16.86;71.27;101243.19;5059205;28;45343;-43
2022/10/31 09:09:40;;;;;;;;;23.00;20.00;;;;;16.89;71.37;101225.84;5057745;28;45443;-42
2022/10/31 09:12:06;;;;;;;;;23.33;19.00;;;;;16.90;71.53;101211.41;5058305;28;45397;-42
2022/10/31 09:14:31;;;;;;;;;22.00;19.33;;;;;16.88;71.30;101202.69;5058945;28;46092;-42
2022/10/31 09:16:56;;;;;;;;;23.67;17.33;;;;;16.89;71.75;101198.97;5058885;28;45266;-48
2022/10/31 09:19:22;;;;;;;;;22.33;18.33;;;;;16.93;71.40;101194.91;5058982;28;45258;-44
2022/10/31 09:21:47;;;;;;;;;25.33;21.00;;;;;16.94;71.43;101184.00;5059078;28;45370;-41
2022/10/31 09:24:13;;;;;;;;;21.00;20.33;;;;;17.07;71.39;101191.50;5058975;28;45279;-44
2022/10/31 09:26:38;;;;;;;;;28.33;22.33;;;;;17.19;71.24;101190.06;5058553;28;45232;-44
2022/10/31 09:29:04;;;;;;;;;24.67;21.67;;;;;17.37;70.65;101176.31;5059023;28;45311;-43
2022/10/31 09:31:29;;;;;;;;;22.00;21.00;;;;;17.77;69.90;101184.22;5058991;28;45394;-44
2022/10/31 09:33:55;;;;;;;;;25.67;21.33;;;;;18.18;68.51;101181.94;5058704;28;46184;-43
2022/10/31 09:36:20;;;;;;;;;21.00;18.00;;;;;18.74;67.20;101176.03;5058654;28;45445;-42
2022/10/31 09:38:45;;;;;;;;;20.33;20.00;;;;;19.37;65.46;101174.41;5058376;28;45228;-43
2022/10/31 09:41:16;;;;;;;;;27.67;19.67;;;;;20.06;63.75;101168.31;5058855;28;45367;-47
2022/10/31 09:44:05;;;;;;;;;3.67;1.00;;;;;20.76;61.50;101169.06;5058505;28;46778;-46
2022/10/31 09:46:57;;;;;;;;;19.33;17.67;;;;;21.28;59.76;101160.25;5058506;28;45457;-43
2022/10/31 09:49:34;;;;;;;;;22.00;20.00;;;;;21.65;58.95;101147.13;5057067;28;45454;-44
2022/10/31 09:52:26;;;;;;;;;22.50;18.75;;;;;21.93;58.61;101139.59;5058674;28;45320;-44
2022/10/31 09:55:00;;;;;;;;;24.25;21.75;;;;;22.10;56.88;101141.84;5058238;28;45359;-44
2022/10/31 09:57:30;;;;;;;;;27.50;20.25;;;;;22.18;56.53;101130.81;5058008;28;45338;-43
2022/10/31 09:59:56;;;;;;;;;21.75;16.75;;;;;22.30;56.10;101131.81;5058230;28;45327;-44
2022/10/31 10:02:29;;;;;;;;;20.00;19.25;;;;;22.35;55.96;101150.13;5058559;28;45215;-43
2022/10/31 10:05:01;;;;;;;;;22.75;17.75;;;;;22.08;55.73;101138.50;5058232;28;45426;-43
2022/10/31 10:07:47;;;;;;;;;21.50;20.25;;;;;21.98;56.76;101141.66;5056707;28;45379;-43
2022/10/31 10:10:38;;;;;;;;;22.25;18.00;;;;;21.84;56.95;101138.16;5058167;28;45410;-42
2022/10/31 10:13:30;;;;;;;;;18.00;17.00;;;;;21.99;56.53;101112.69;5058149;28;45254;-43
2022/10/31 10:16:10;;;;;;;;;23.50;18.00;;;;;22.22;56.04;101104.94;5056428;28;47321;-43
2022/10/31 10:19:05;;;;;;;;;20.00;16.75;;;;;22.45;54.45;101096.28;5057847;28;45367;-42
2022/10/31 10:21:37;;;;;;;;;16.75;14.00;;;;;22.62;54.79;101088.47;5057287;28;45375;-44
2022/10/31 10:24:31;;;;;;;;;24.00;17.00;;;;;22.73;55.06;101086.94;5058251;28;45409;-42
2022/10/31 10:27:28;;;;;;;;;18.25;15.00;;;;;22.40;54.10;101086.09;5057654;28;46316;-42
2022/10/31 10:30:10;;;;;;;;;16.25;12.75;;;;;21.82;55.74;101074.41;5035313;28;45337;-45
2022/10/31 10:32:57;;;;;;;;;15.50;15.00;;;;;21.55;57.11;101077.19;5018773;28;45320;-47
2022/10/31 10:35:32;;;;;;;;;17.75;16.50;;;;;21.52;57.34;101071.34;5035473;28;45619;-42
2022/10/31 10:38:12;;;;;;;;;19.50;15.75;;;;;21.42;57.94;101072.63;5035367;28;46078;-46
2022/10/31 10:40:38;;;;;;;;;16.75;15.25;;;;;21.39;57.69;101069.50;5035330;28;45436;-44
2022/10/31 10:43:18;;;;;;;;;20.75;17.00;;;;;21.52;57.76;101065.94;5035209;28;45431;-43
2022/10/31 10:48:52;;;;;;;;;16.75;15.50;;;;;22.05;56.76;101046.84;5035362;28;45551;-41
2022/10/31 10:51:27;;;;;;;;;17.00;15.75;;;;;22.47;55.63;101031.84;5035272;28;45444;-42
2022/10/31 10:54:13;;;;;;;;;18.25;17.25;;;;;22.80;54.89;101019.94;5035425;28;45380;-44
2022/10/31 10:56:58;;;;;;;;;21.25;16.00;;;;;23.16;53.98;101008.38;5035292;28;45440;-42
2022/10/31 10:59:24;;;;;;;;;17.75;14.75;;;;;23.68;52.08;100986.34;5035086;28;47228;-41
2022/10/31 11:01:51;;;;;;;;;15.00;12.50;;;;;24.17;51.00;100965.44;5034903;28;45578;-44
2022/10/31 11:04:35;;;;;;;;;12.20;12.00;;;;;24.74;49.94;100971.28;5035356;28;45341;-43
2022/10/31 11:07:02;;;;;;;;;15.75;13.75;;;;;25.02;48.41;100985.00;5057393;28;45521;-44
2022/10/31 11:09:27;;;;;;;;;10.25;10.25;;;;;25.22;47.73;100979.22;5057006;28;46356;-43
2022/10/31 11:11:55;;;;;;;;;17.00;12.00;;;;;25.37;47.63;100965.97;5057199;28;45208;-42
2022/10/31 11:14:22;;;;;;;;;14.60;13.40;;;;;25.66;46.80;100959.72;5057543;28;45449;-44
2022/10/31 11:17:15;;;;;;;;;17.00;12.00;;;;;25.88;47.00;100961.59;5057201;28;45465;-42
2022/10/31 11:19:41;;;;;;;;;16.60;13.60;;;;;26.09;46.22;100971.00;5056238;28;46305;-43
2022/10/31 11:22:16;;;;;;;;;13.75;11.50;;;;;25.98;43.79;100976.47;5057231;28;45425;-42
2022/10/31 11:24:42;;;;;;;;;19.60;16.20;;;;;25.90;44.90;100961.34;5057150;28;45434;-43